EDT,Max TemperatureF,Mean TemperatureF,Min TemperatureF,Max Dew PointF,MeanDew PointF,Min DewpointF,Max Humidity, Mean Humidity, Min Humidity, Max Sea Level PressureIn, Mean Sea Level PressureIn, Min Sea Level PressureIn, Max VisibilityMiles, Mean VisibilityMiles, Min VisibilityMiles, Max Wind SpeedMPH, Mean Wind SpeedMPH, Max Gust SpeedMPH,PrecipitationIn, CloudCover, Events, WindDirDegrees
2012-10-1,63,62,60,63,60,59,100,97,93,29.87,29.81,29.76,10,3,1,17,10,22,1.68,8,Rain,40
2012-10-2,80,70,60,68,63,60,100,78,56,29.96,29.80,29.73,10,6,0,18,6,24,0.35,7,Fog-Rain-Thunderstorm,353
2012-10-3,76,70,64,63,62,58,93,75,57,30.18,30.08,29.96,10,10,10,12,4,16,T,2,Rain,210
2012-10-4,81,71,61,63,60,54,100,71,42,30.24,30.19,30.15,10,9,5,7,1,10,0.00,0,,237
2012-10-5,81,69,57,59,56,54,90,66,42,30.19,30.11,30.01,10,10,10,12,3,13,0.00,0,,88
2012-10-6,83,70,56,64,59,55,100,74,47,30.01,29.93,29.86,10,10,6,13,4,17,0.00,2,,231
2012-10-7,65,60,55,60,56,51,93,83,72,30.11,30.01,29.92,10,10,2,15,7,24,0.28,8,Rain-Thunderstorm,34
2012-10-8,55,52,49,50,45,39,86,75,63,30.18,30.14,30.10,10,10,10,15,9,21,0.00,8,,35
2012-10-9,57,53,48,50,47,45,93,83,72,30.18,30.13,30.09,10,10,10,8,3,12,0.00,8,,53
2012-10-10,74,59,44,54,48,43,100,72,44,30.14,30.08,30.02,10,7,1,16,5,24,0.00,1,,256
2012-10-11,69,59,48,50,45,41,89,66,42,30.29,30.21,30.14,10,10,8,10,3,14,0.00,0,,82
2012-10-12,75,62,49,59,53,48,100,77,53,30.27,30.20,30.16,10,10,9,8,2,10,0.00,2,,48
2012-10-13,67,59,51,53,47,40,89,69,48,30.45,30.35,30.28,10,10,10,17,6,22,0.00,4,,40
2012-10-14,70,62,54,61,56,49,100,84,67,30.30,30.18,30.02,10,10,10,8,2,9,T,7,Rain,185
2012-10-15,79,68,56,65,57,38,100,64,27,30.03,29.88,29.75,10,10,5,17,9,22,0.10,5,Rain,233
2012-10-16,70,59,48,50,45,42,86,62,37,29.96,29.91,29.86,10,10,9,8,3,12,0.00,0,,21
2012-10-17,73,60,47,51,47,45,100,69,38,29.98,29.91,29.86,10,10,10,15,4,17,0.00,0,,152
2012-10-18,72,61,49,61,55,46,100,85,70,29.90,29.83,29.77,10,8,1,15,3,21,0.01,5,Rain,225
2012-10-19,71,59,47,59,48,31,100,62,23,29.79,29.77,29.71,10,6,0,23,8,37,0.00,2,Fog,233
2012-10-20,70,57,44,49,43,40,89,65,40,29.94,29.83,29.77,10,10,10,10,5,14,0.00,0,,231
2012-10-21,72,58,43,49,45,41,96,68,40,30.14,30.08,29.97,10,10,10,9,2,13,0.00,0,,258
2012-10-22,77,61,44,53,49,43,100,69,38,30.23,30.17,30.12,10,10,6,7,1,9,0.00,0,,120
2012-10-23,79,64,48,54,51,48,100,68,35,30.20,30.14,30.09,10,10,10,12,2,21,0.00,0,,212
2012-10-24,81,64,47,57,50,45,100,65,30,30.19,30.12,30.07,10,9,3,8,1,12,0.00,0,,167
2012-10-25,78,64,50,59,54,48,89,68,47,30.15,30.10,30.06,10,10,5,10,3,15,0.00,2,,45
2012-10-26,79,69,58,61,57,55,90,68,45,30.07,30.00,29.92,10,10,10,14,6,17,0.00,1,,42
2012-10-27,75,66,57,58,55,50,84,69,53,29.92,29.79,29.70,10,10,10,16,9,23,0.00,2,,15
2012-10-28,72,59,46,49,44,35,83,62,41,29.75,29.70,29.64,10,10,6,16,7,28,0.01,3,Rain,340
2012-10-29,56,51,46,33,31,28,60,51,41,29.72,29.66,29.57,10,10,10,24,11,37,0.00,4,,326
2012-10-30,55,50,45,33,30,27,60,51,41,29.68,29.56,29.49,10,10,10,18,9,26,0.00,4,,269
2012-10-31,63,52,41,35,29,21,76,49,22,29.79,29.72,29.67,10,10,10,20,7,25,0.00,2,,257